Federal Manitou — V2CE9 — position and weather

sailwx.info

Track history (hours):
 
Tides and Currents Weather Stations Pressure Air Temp Water Temp Dewpoint Dewpoint Depression Visibility Wind Speed Wind Dir Waves Ship Positions

Federal Manitou

Last reported at 2017-Nov-05 20:07 UTC. Time now 2017-Nov-18 01:08 UTC.
Position N 49°40' W 003°50'.
Warning: this ship's position is 12 days out of date.

Length 185.1 m; beam 23.5 m; draft 9.8 m.

Type: Cargo ship. MMSI: 304603000.

Date/timePositionNaut miles runAvg speedWind from/ knotsBaromVisibWave heightAir tempDewpointWater temp
2017-Nov-05 20:07N 49°40' W 003°50'911.3
2017-Nov-05 19:20N 49°44' W 003°39'410.9
2017-Nov-05 19:00N 49°46' W 003°34'510.6
2017-Nov-05 18:30N 49°48' W 003°27'610.7
2017-Nov-05 17:57N 49°51' W 003°19'1011.3
2017-Nov-05 17:02N 49°57' W 003°05'112.0
2017-Nov-05 16:57N 49°57' W 003°04'712.2
2017-Nov-05 16:24N 49°60' W 002°54'513.1
2017-Nov-05 16:00N 50°01' W 002°46'2515.3
2017-Nov-05 14:23N 50°08' W 002°09'616.4
2017-Nov-05 14:00N 50°09' W 001°60'816.4
2017-Nov-05 13:30N 50°12' W 001°47'815.6
2017-Nov-05 13:00N 50°14' W 001°36'714.8
2017-Nov-05 12:31N 50°16' W 001°24'713.9
2017-Nov-05 12:00N 50°18' W 001°14'3010.6
2017-Nov-05 09:09N 50°26' W 000°28'1 9.4
2017-Nov-05 09:00N 50°26' W 000°26'5 9.6
2017-Nov-05 08:30N 50°28' W 000°19'510.0
2017-Nov-05 08:00N 50°29' W 000°12'510.7
2017-Nov-05 07:30N 50°30' W 000°03'611.2
2017-Nov-05 07:00N 50°32' E 000°05'812.2
2017-Nov-05 06:21N 50°34' E 000°17'513.1
2017-Nov-05 05:58N 50°35' E 000°25'613.8
2017-Nov-05 05:30N 50°38' E 000°34'714.2
2017-Nov-05 05:01N 50°41' E 000°43'714.2
2017-Nov-05 04:30N 50°46' E 000°52'713.8
2017-Nov-05 04:00N 50°50' E 001°01'713.4
2017-Nov-05 03:30N 50°54' E 001°09'612.7
2017-Nov-05 03:00N 50°59' E 001°17'611.8
2017-Nov-05 02:30N 51°02' E 001°24'511.0
2017-Nov-05 02:00N 51°06' E 001°30'5 9.8
2017-Nov-05 01:30N 51°09' E 001°36'5 9.5
2017-Nov-05 01:00N 51°12' E 001°42'5 9.9
2017-Nov-05 00:30N 51°16' E 001°48'510.8
2017-Nov-05 00:00N 51°21' E 001°52'611.7
2017-Nov-04 23:31N 51°25' E 001°56'612.4
2017-Nov-04 23:00N 51°30' E 002°03'713.0
2017-Nov-04 22:30N 51°35' E 002°11'17212.3
2017-Nov-04 08:34N 54°06' E 004°28'112.5
2017-Nov-04 08:29N 54°06' E 004°29'25012.3
2017-Nov-03 12:08N 57°28' E 008°50'711.7
2017-Nov-03 11:34N 57°31' E 009°00'911.5
2017-Nov-03 10:46N 57°36' E 009°16'311.6
2017-Nov-03 10:30N 57°37' E 009°21'1711.8
2017-Nov-03 09:03N 57°45' E 009°49'111.7
2017-Nov-03 08:59N 57°45' E 009°50'612.0
2017-Nov-03 08:28N 57°48' E 010°01'712.0
2017-Nov-03 07:52N 57°49' E 010°15'412.2
2017-Nov-03 07:30N 57°49' E 010°23'612.4
2017-Nov-03 07:01N 57°49' E 010°34'612.1
2017-Nov-03 06:30N 57°49' E 010°46'713.0
2017-Nov-03 06:00N 57°44' E 010°55'612.8
2017-Nov-03 05:30N 57°40' E 011°04'713.2
2017-Nov-03 05:00N 57°35' E 011°12'713.2
2017-Nov-03 04:30N 57°31' E 011°21'712.8
2017-Nov-03 04:00N 57°25' E 011°28'612.7
2017-Nov-03 03:30N 57°19' E 011°32'712.5
2017-Nov-03 02:58N 57°13' E 011°36'1012.8
2017-Nov-03 02:14N 57°04' E 011°42'312.9
2017-Nov-03 01:58N 57°01' E 011°44'712.7
2017-Nov-03 01:25N 56°54' E 011°48'612.8
2017-Nov-03 00:57N 56°49' E 011°52'9211.4
2017-Nov-02 16:52N 55°21' E 011°02'511.8
2017-Nov-02 16:29N 55°17' E 011°04'511.1
2017-Nov-02 16:00N 55°11' E 011°05'612.0
2017-Nov-02 15:31N 55°06' E 011°03'612.4
2017-Nov-02 15:00N 54°59' E 011°01'612.1
2017-Nov-02 14:30N 54°55' E 010°54'611.4
2017-Nov-02 14:00N 54°49' E 010°52'510.5
2017-Nov-02 13:30N 54°44' E 010°53'3 6.7
2017-Nov-02 13:01N 54°41' E 010°56'5 9.0
2017-Nov-02 12:30N 54°39' E 011°03'510.5
2017-Nov-02 12:01N 54°37' E 011°11'611.9
2017-Nov-02 11:31N 54°34' E 011°20'612.0
2017-Nov-02 11:00N 54°31' E 011°30'611.9
2017-Nov-02 10:30N 54°28' E 011°39'612.0
2017-Nov-02 10:00N 54°26' E 011°49'612.2
2017-Nov-02 09:30N 54°26' E 011°59'611.9
2017-Nov-02 09:00N 54°27' E 012°09'6011.3
2017-Nov-02 03:39N 54°59' E 013°38'211.4
2017-Nov-02 03:29N 54°60' E 013°41'711.6
2017-Nov-02 02:53N 55°02' E 013°53'511.8
2017-Nov-02 02:28N 55°03' E 014°01'511.2
2017-Nov-02 02:01N 55°06' E 014°08'611.7
2017-Nov-02 01:30N 55°11' E 014°15'612.0
2017-Nov-02 01:00N 55°15' E 014°22'612.3
2017-Nov-02 00:29N 55°20' E 014°29'612.3
2017-Nov-02 00:00N 55°25' E 014°35'611.9
2017-Nov-01 23:30N 55°28' E 014°44'612.4
2017-Nov-01 23:00N 55°31' E 014°54'612.7
2017-Nov-01 22:30N 55°33' E 015°04'612.8
2017-Nov-01 22:00N 55°36' E 015°15'612.4
2017-Nov-01 21:31N 55°38' E 015°25'612.8
2017-Nov-01 21:00N 55°40' E 015°36'612.6
2017-Nov-01 20:30N 55°42' E 015°46'612.5
2017-Nov-01 20:00N 55°43' E 015°57'912.6
2017-Nov-01 19:20N 55°46' E 016°12'512.5
2017-Nov-01 18:55N 55°47' E 016°20'  
2017-Oct-27 06:58N 55°49' E 016°54'612.3
2017-Oct-27 06:30N 55°48' E 016°45'713.0
2017-Oct-27 06:00N 55°46' E 016°33'713.2
2017-Oct-27 05:30N 55°45' E 016°22'713.3
2017-Oct-27 05:00N 55°43' E 016°10'713.4
2017-Oct-27 04:30N 55°41' E 015°59'713.4
2017-Oct-27 04:00N 55°40' E 015°47'713.5
2017-Oct-27 03:30N 55°38' E 015°36'713.5
2017-Oct-27 03:00N 55°36' E 015°24'713.8
2017-Oct-27 02:30N 55°33' E 015°13'713.9
2017-Oct-27 02:00N 55°30' E 015°02'714.1
2017-Oct-27 01:30N 55°27' E 014°51'713.9
2017-Oct-27 01:01N 55°24' E 014°40'713.8
2017-Oct-27 00:31N 55°19' E 014°32'713.8
2017-Oct-26 23:59N 55°13' E 014°24'613.1
2017-Oct-26 23:31N 55°09' E 014°16'2214.1
2017-Oct-26 21:58N 55°12' E 013°38'614.3
2017-Oct-26 21:31N 55°12' E 013°26'714.2
2017-Oct-26 21:00N 55°13' E 013°14'714.1
2017-Oct-26 20:30N 55°14' E 013°02'  
Track history (hours):
 
Tides and Currents Weather Stations Pressure Air Temp Water Temp Dewpoint Dewpoint Depression Visibility Wind Speed Wind Dir Waves Ship Positions

Federal Manitou

Last reported at 2017-Nov-05 20:07 UTC. Time now 2017-Nov-18 01:08 UTC.
Position N 49°40' W 003°50'.
Warning: this ship's position is 12 days out of date.

Length 185.1 m; beam 23.5 m; draft 9.8 m.

Type: Cargo ship. MMSI: 304603000.

Date/timePositionNaut miles runAvg speedWind from/ knotsBaromVisibWave heightAir tempDewpointWater temp
2017-Nov-05 20:07N 49°40' W 003°50'911.3
2017-Nov-05 19:20N 49°44' W 003°39'410.9
2017-Nov-05 19:00N 49°46' W 003°34'510.6
2017-Nov-05 18:30N 49°48' W 003°27'610.7
2017-Nov-05 17:57N 49°51' W 003°19'1011.3
2017-Nov-05 17:02N 49°57' W 003°05'112.0
2017-Nov-05 16:57N 49°57' W 003°04'712.2
2017-Nov-05 16:24N 49°60' W 002°54'513.1
2017-Nov-05 16:00N 50°01' W 002°46'2515.3
2017-Nov-05 14:23N 50°08' W 002°09'616.4
2017-Nov-05 14:00N 50°09' W 001°60'816.4
2017-Nov-05 13:30N 50°12' W 001°47'815.6
2017-Nov-05 13:00N 50°14' W 001°36'714.8
2017-Nov-05 12:31N 50°16' W 001°24'713.9
2017-Nov-05 12:00N 50°18' W 001°14'3010.6
2017-Nov-05 09:09N 50°26' W 000°28'1 9.4
2017-Nov-05 09:00N 50°26' W 000°26'5 9.6
2017-Nov-05 08:30N 50°28' W 000°19'510.0
2017-Nov-05 08:00N 50°29' W 000°12'510.7
2017-Nov-05 07:30N 50°30' W 000°03'611.2
2017-Nov-05 07:00N 50°32' E 000°05'812.2
2017-Nov-05 06:21N 50°34' E 000°17'513.1
2017-Nov-05 05:58N 50°35' E 000°25'613.8
2017-Nov-05 05:30N 50°38' E 000°34'714.2
2017-Nov-05 05:01N 50°41' E 000°43'714.2
2017-Nov-05 04:30N 50°46' E 000°52'713.8
2017-Nov-05 04:00N 50°50' E 001°01'713.4
2017-Nov-05 03:30N 50°54' E 001°09'612.7
2017-Nov-05 03:00N 50°59' E 001°17'611.8
2017-Nov-05 02:30N 51°02' E 001°24'511.0
2017-Nov-05 02:00N 51°06' E 001°30'5 9.8
2017-Nov-05 01:30N 51°09' E 001°36'5 9.5
2017-Nov-05 01:00N 51°12' E 001°42'5 9.9
2017-Nov-05 00:30N 51°16' E 001°48'510.8
2017-Nov-05 00:00N 51°21' E 001°52'611.7
2017-Nov-04 23:31N 51°25' E 001°56'612.4
2017-Nov-04 23:00N 51°30' E 002°03'713.0
2017-Nov-04 22:30N 51°35' E 002°11'17212.3
2017-Nov-04 08:34N 54°06' E 004°28'112.5
2017-Nov-04 08:29N 54°06' E 004°29'25012.3
2017-Nov-03 12:08N 57°28' E 008°50'711.7
2017-Nov-03 11:34N 57°31' E 009°00'911.5
2017-Nov-03 10:46N 57°36' E 009°16'311.6
2017-Nov-03 10:30N 57°37' E 009°21'1711.8
2017-Nov-03 09:03N 57°45' E 009°49'111.7
2017-Nov-03 08:59N 57°45' E 009°50'612.0
2017-Nov-03 08:28N 57°48' E 010°01'712.0
2017-Nov-03 07:52N 57°49' E 010°15'412.2
2017-Nov-03 07:30N 57°49' E 010°23'612.4
2017-Nov-03 07:01N 57°49' E 010°34'612.1
2017-Nov-03 06:30N 57°49' E 010°46'713.0
2017-Nov-03 06:00N 57°44' E 010°55'612.8
2017-Nov-03 05:30N 57°40' E 011°04'713.2
2017-Nov-03 05:00N 57°35' E 011°12'713.2
2017-Nov-03 04:30N 57°31' E 011°21'712.8
2017-Nov-03 04:00N 57°25' E 011°28'612.7
2017-Nov-03 03:30N 57°19' E 011°32'712.5
2017-Nov-03 02:58N 57°13' E 011°36'1012.8
2017-Nov-03 02:14N 57°04' E 011°42'312.9
2017-Nov-03 01:58N 57°01' E 011°44'712.7
2017-Nov-03 01:25N 56°54' E 011°48'612.8
2017-Nov-03 00:57N 56°49' E 011°52'9211.4
2017-Nov-02 16:52N 55°21' E 011°02'511.8
2017-Nov-02 16:29N 55°17' E 011°04'511.1
2017-Nov-02 16:00N 55°11' E 011°05'612.0
2017-Nov-02 15:31N 55°06' E 011°03'612.4
2017-Nov-02 15:00N 54°59' E 011°01'612.1
2017-Nov-02 14:30N 54°55' E 010°54'611.4
2017-Nov-02 14:00N 54°49' E 010°52'510.5
2017-Nov-02 13:30N 54°44' E 010°53'3 6.7
2017-Nov-02 13:01N 54°41' E 010°56'5 9.0
2017-Nov-02 12:30N 54°39' E 011°03'510.5
2017-Nov-02 12:01N 54°37' E 011°11'611.9
2017-Nov-02 11:31N 54°34' E 011°20'612.0
2017-Nov-02 11:00N 54°31' E 011°30'611.9
2017-Nov-02 10:30N 54°28' E 011°39'612.0
2017-Nov-02 10:00N 54°26' E 011°49'612.2
2017-Nov-02 09:30N 54°26' E 011°59'611.9
2017-Nov-02 09:00N 54°27' E 012°09'6011.3
2017-Nov-02 03:39N 54°59' E 013°38'211.4
2017-Nov-02 03:29N 54°60' E 013°41'711.6
2017-Nov-02 02:53N 55°02' E 013°53'511.8
2017-Nov-02 02:28N 55°03' E 014°01'511.2
2017-Nov-02 02:01N 55°06' E 014°08'611.7
2017-Nov-02 01:30N 55°11' E 014°15'612.0
2017-Nov-02 01:00N 55°15' E 014°22'612.3
2017-Nov-02 00:29N 55°20' E 014°29'612.3
2017-Nov-02 00:00N 55°25' E 014°35'611.9
2017-Nov-01 23:30N 55°28' E 014°44'612.4
2017-Nov-01 23:00N 55°31' E 014°54'612.7
2017-Nov-01 22:30N 55°33' E 015°04'612.8
2017-Nov-01 22:00N 55°36' E 015°15'612.4
2017-Nov-01 21:31N 55°38' E 015°25'612.8
2017-Nov-01 21:00N 55°40' E 015°36'612.6
2017-Nov-01 20:30N 55°42' E 015°46'612.5
2017-Nov-01 20:00N 55°43' E 015°57'912.6
2017-Nov-01 19:20N 55°46' E 016°12'512.5
2017-Nov-01 18:55N 55°47' E 016°20'  
2017-Oct-27 06:58N 55°49' E 016°54'612.3
2017-Oct-27 06:30N 55°48' E 016°45'713.0
2017-Oct-27 06:00N 55°46' E 016°33'713.2
2017-Oct-27 05:30N 55°45' E 016°22'713.3
2017-Oct-27 05:00N 55°43' E 016°10'713.4
2017-Oct-27 04:30N 55°41' E 015°59'713.4
2017-Oct-27 04:00N 55°40' E 015°47'713.5
2017-Oct-27 03:30N 55°38' E 015°36'713.5
2017-Oct-27 03:00N 55°36' E 015°24'713.8
2017-Oct-27 02:30N 55°33' E 015°13'713.9
2017-Oct-27 02:00N 55°30' E 015°02'714.1
2017-Oct-27 01:30N 55°27' E 014°51'713.9
2017-Oct-27 01:01N 55°24' E 014°40'713.8
2017-Oct-27 00:31N 55°19' E 014°32'713.8
2017-Oct-26 23:59N 55°13' E 014°24'613.1
2017-Oct-26 23:31N 55°09' E 014°16'2214.1
2017-Oct-26 21:58N 55°12' E 013°38'614.3
2017-Oct-26 21:31N 55°12' E 013°26'714.2
2017-Oct-26 21:00N 55°13' E 013°14'714.1
2017-Oct-26 20:30N 55°14' E 013°02'  

Dump ship's entire track history